createdAt,value
2018-10-02T00:00:56.384Z,8.60
2018-10-02T00:03:24.652Z,8.60
2018-10-02T00:05:52.916Z,8.60
2018-10-02T00:08:21.965Z,8.70
2018-10-02T00:10:55.656Z,8.60
2018-10-02T00:13:29.705Z,8.70
2018-10-02T00:15:57.979Z,8.70
2018-10-02T00:18:26.235Z,8.70
2018-10-02T00:20:54.900Z,8.70
2018-10-02T00:23:23.256Z,8.70
2018-10-02T00:25:51.520Z,8.70
2018-10-02T00:28:20.276Z,8.70
2018-10-02T00:30:48.550Z,8.70
2018-10-02T00:33:16.936Z,8.70
2018-10-02T00:35:45.248Z,8.70
2018-10-02T00:38:13.516Z,8.70
2018-10-02T00:40:41.862Z,8.70
2018-10-02T00:43:10.441Z,8.70
2018-10-02T00:45:38.736Z,8.60
2018-10-02T00:48:07.003Z,8.70
2018-10-02T00:50:35.656Z,8.70
2018-10-02T00:53:04.005Z,8.70
2018-10-02T00:55:32.282Z,8.70
2018-10-02T00:58:00.618Z,8.70
2018-10-02T01:00:29.340Z,8.70
2018-10-02T01:02:57.687Z,8.70
2018-10-02T01:05:26.111Z,8.70
2018-10-02T01:07:54.350Z,8.80
2018-10-02T01:10:22.632Z,8.80
2018-10-02T01:12:51.435Z,8.80
2018-10-02T01:15:19.728Z,8.70
2018-10-02T01:17:48.032Z,8.80
2018-10-02T01:20:16.612Z,8.80
2018-10-02T01:22:44.896Z,8.80
2018-10-02T01:25:13.376Z,8.90
2018-10-02T01:27:41.889Z,8.90
2018-10-02T01:30:10.176Z,9.00
2018-10-02T01:32:38.440Z,9.00
2018-10-02T01:35:06.804Z,9.00
2018-10-02T01:37:35.077Z,9.00
2018-10-02T01:40:03.449Z,9.00
2018-10-02T01:42:31.896Z,9.00
2018-10-02T01:45:00.285Z,9.00
2018-10-02T01:47:28.531Z,9.00
2018-10-02T01:49:57.260Z,9.00
2018-10-02T01:52:25.755Z,9.00
2018-10-02T01:54:54.107Z,9.00
2018-10-02T01:57:23.268Z,9.00
2018-10-02T01:59:51.664Z,9.00
2018-10-02T02:02:19.958Z,9.00
2018-10-02T02:04:48.236Z,9.00
2018-10-02T02:07:16.509Z,9.00
2018-10-02T02:09:44.751Z,9.00
2018-10-02T02:12:13.596Z,9.00
2018-10-02T02:14:41.899Z,9.00
2018-10-02T02:17:10.948Z,9.00
2018-10-02T02:19:39.740Z,9.00
2018-10-02T02:22:08.020Z,9.00
2018-10-02T02:24:36.600Z,9.00
2018-10-02T02:27:05.802Z,9.10
2018-10-02T02:29:34.075Z,9.10
2018-10-02T02:32:02.408Z,9.10
2018-10-02T02:34:30.667Z,9.10
2018-10-02T02:36:58.976Z,9.10
2018-10-02T02:39:27.231Z,9.20
2018-10-02T02:41:55.495Z,9.10
2018-10-02T02:44:23.860Z,9.10
2018-10-02T02:46:52.125Z,9.10
2018-10-02T02:49:25.857Z,9.10
2018-10-02T02:51:54.317Z,9.20
2018-10-02T02:54:22.720Z,9.10
2018-10-02T02:56:51.202Z,9.10
2018-10-02T02:59:19.568Z,9.20
2018-10-02T03:01:47.981Z,9.10
2018-10-02T03:04:16.761Z,9.10
2018-10-02T03:06:45.046Z,9.10
2018-10-02T03:09:13.333Z,9.20
2018-10-02T03:11:41.642Z,9.10
2018-10-02T03:14:09.885Z,9.20
2018-10-02T03:16:38.169Z,9.20
2018-10-02T03:19:07.417Z,9.20
2018-10-02T03:21:35.967Z,9.20
2018-10-02T03:24:04.235Z,9.20
2018-10-02T03:26:32.558Z,9.20
2018-10-02T03:29:00.945Z,9.20
2018-10-02T03:31:29.225Z,9.10
2018-10-02T03:33:57.584Z,9.10
2018-10-02T03:36:25.968Z,9.10
2018-10-02T03:38:54.232Z,9.00
2018-10-02T03:41:23.056Z,9.10
2018-10-02T03:43:51.435Z,9.10
2018-10-02T03:46:19.729Z,9.00
2018-10-02T03:48:48.535Z,9.00
2018-10-02T03:51:16.836Z,9.00
2018-10-02T03:53:45.100Z,9.00
2018-10-02T03:56:14.381Z,9.00
2018-10-02T03:58:42.646Z,9.00
2018-10-02T04:01:10.938Z,9.00
2018-10-02T04:03:39.806Z,9.00
2018-10-02T04:06:08.038Z,9.00
2018-10-02T04:08:36.341Z,9.00
2018-10-02T04:11:05.072Z,9.00
2018-10-02T04:13:33.341Z,9.00
2018-10-02T04:16:01.646Z,9.00
2018-10-02T04:18:30.545Z,9.00
2018-10-02T04:20:58.824Z,9.00
2018-10-02T04:23:27.156Z,9.00
2018-10-02T04:25:55.835Z,9.00
2018-10-02T04:28:24.338Z,9.00
2018-10-02T04:30:52.605Z,9.10
2018-10-02T04:33:20.933Z,9.10
2018-10-02T04:35:49.224Z,9.10
2018-10-02T04:38:17.504Z,9.10
2018-10-02T04:40:46.308Z,9.10
2018-10-02T04:43:14.815Z,9.10
2018-10-02T04:45:43.160Z,9.20
2018-10-02T04:48:11.847Z,9.20
2018-10-02T04:50:40.124Z,9.20
2018-10-02T04:53:08.444Z,9.30
2018-10-02T04:55:36.713Z,9.20
2018-10-02T04:58:05.188Z,9.20
2018-10-02T05:00:33.455Z,9.10
2018-10-02T05:03:01.810Z,9.20
2018-10-02T05:05:30.136Z,9.10
2018-10-02T05:07:58.469Z,9.10
2018-10-02T05:10:27.192Z,9.20
2018-10-02T05:12:55.553Z,9.10
2018-10-02T05:15:23.914Z,9.10
2018-10-02T05:17:52.324Z,9.20
2018-10-02T05:20:21.332Z,9.20
2018-10-02T05:22:49.645Z,9.20
2018-10-02T05:25:18.532Z,9.30
2018-10-02T05:27:46.902Z,9.30
2018-10-02T05:30:15.116Z,9.30
2018-10-02T05:32:44.130Z,9.30
2018-10-02T05:35:12.629Z,9.30
2018-10-02T05:37:40.786Z,9.30
2018-10-02T05:40:10.586Z,9.30
2018-10-02T05:42:41.318Z,9.30
2018-10-02T05:45:16.161Z,9.40
2018-10-02T05:47:44.448Z,9.40
2018-10-02T05:50:12.728Z,9.40
2018-10-02T05:52:41.049Z,9.40
2018-10-02T05:55:09.561Z,9.50
2018-10-02T05:57:39.119Z,9.40
2018-10-02T06:00:08.761Z,9.50
2018-10-02T06:02:37.915Z,9.40
2018-10-02T06:05:06.620Z,9.50
2018-10-02T06:07:35.265Z,9.50
2018-10-02T06:10:03.704Z,9.50
2018-10-02T06:12:31.976Z,9.50
2018-10-02T06:15:00.496Z,9.60
2018-10-02T06:17:28.840Z,9.60
2018-10-02T06:19:57.088Z,9.60
2018-10-02T06:22:25.357Z,9.60
2018-10-02T06:24:53.629Z,9.70
2018-10-02T06:27:21.894Z,9.70
2018-10-02T06:29:50.674Z,9.70
2018-10-02T06:32:18.926Z,9.70
2018-10-02T06:34:47.281Z,9.70
2018-10-02T06:37:16.122Z,9.80
2018-10-02T06:39:44.386Z,9.80
2018-10-02T06:42:12.702Z,9.80
2018-10-02T06:44:41.134Z,9.80
2018-10-02T06:47:09.367Z,9.80
2018-10-02T06:49:37.722Z,9.80
2018-10-02T06:52:06.453Z,9.80
2018-10-02T06:54:34.725Z,9.80
2018-10-02T06:57:03.318Z,9.80
2018-10-02T06:59:32.325Z,9.90
2018-10-02T07:02:00.688Z,9.90
2018-10-02T07:04:29.020Z,9.90
2018-10-02T07:06:57.393Z,9.90
2018-10-02T07:09:25.660Z,9.90
2018-10-02T07:11:54.189Z,9.80
2018-10-02T07:14:22.596Z,9.80
2018-10-02T07:16:50.989Z,9.80
2018-10-02T07:19:19.447Z,9.80
2018-10-02T07:21:48.318Z,9.80
2018-10-02T07:24:17.085Z,9.80
2018-10-02T07:26:45.567Z,9.70
2018-10-02T07:29:13.961Z,9.70
2018-10-02T07:31:42.451Z,9.80
2018-10-02T07:34:11.785Z,9.80
2018-10-02T07:36:40.497Z,9.80
2018-10-02T07:39:09.286Z,9.80
2018-10-02T07:41:37.768Z,9.90
2018-10-02T07:44:06.365Z,10.00
2018-10-02T07:46:34.708Z,10.00
2018-10-02T07:49:03.105Z,10.00
2018-10-02T07:51:31.781Z,10.00
2018-10-02T07:54:00.069Z,10.10
2018-10-02T07:56:28.344Z,10.10
2018-10-02T07:58:56.789Z,10.00
2018-10-02T08:01:25.176Z,10.10
2018-10-02T08:03:53.472Z,10.10
2018-10-02T08:06:22.299Z,10.10
2018-10-02T08:08:50.631Z,10.10
2018-10-02T08:11:18.893Z,10.20
2018-10-02T08:13:47.191Z,10.20
2018-10-02T08:16:15.472Z,10.20
2018-10-02T08:18:43.793Z,10.20
2018-10-02T08:21:12.116Z,10.30
2018-10-02T08:23:40.433Z,10.30
2018-10-02T08:26:09.265Z,10.30
2018-10-02T08:28:38.052Z,10.40
2018-10-02T08:31:06.348Z,10.40
2018-10-02T08:33:34.608Z,10.40
2018-10-02T08:36:03.835Z,10.50
2018-10-02T08:38:32.572Z,10.50
2018-10-02T08:41:00.829Z,10.50
2018-10-02T08:43:29.192Z,10.60
2018-10-02T08:45:57.683Z,10.60
2018-10-02T08:48:26.041Z,10.70
2018-10-02T08:50:54.687Z,10.70
2018-10-02T08:53:23.044Z,10.80
2018-10-02T08:55:51.296Z,10.80
2018-10-02T08:58:20.048Z,10.80
2018-10-02T09:00:48.438Z,10.90
2018-10-02T09:03:16.774Z,10.90
2018-10-02T09:05:45.449Z,10.90
2018-10-02T09:08:13.746Z,11.00
2018-10-02T09:10:42.013Z,11.00
2018-10-02T09:13:10.665Z,11.10
2018-10-02T09:15:39.012Z,11.20
2018-10-02T09:18:07.253Z,11.20
2018-10-02T09:20:35.769Z,11.30
2018-10-02T09:23:04.084Z,11.30
2018-10-02T09:25:32.374Z,11.30
2018-10-02T09:28:00.813Z,11.30
2018-10-02T09:30:34.712Z,11.30
2018-10-02T09:33:08.749Z,11.40
2018-10-02T09:35:42.577Z,11.40
2018-10-02T09:38:16.381Z,11.50
2018-10-02T09:40:50.037Z,11.50
2018-10-02T09:43:25.768Z,11.60
2018-10-02T09:45:55.388Z,11.60
2018-10-02T09:48:23.694Z,11.70
2018-10-02T09:50:52.614Z,11.70
2018-10-02T09:53:20.897Z,11.70
2018-10-02T09:55:49.168Z,11.80
2018-10-02T09:58:18.265Z,11.80
2018-10-02T10:00:51.842Z,11.80
2018-10-02T10:03:20.151Z,11.80
2018-10-02T10:05:48.441Z,11.80
2018-10-02T10:08:16.711Z,11.90
2018-10-02T10:10:45.183Z,11.90
2018-10-02T10:13:13.441Z,12.00
2018-10-02T10:15:41.714Z,12.10
2018-10-02T10:18:10.092Z,12.10
2018-10-02T10:20:38.394Z,12.20
2018-10-02T10:23:06.858Z,12.20
2018-10-02T10:25:35.398Z,12.30
2018-10-02T10:28:03.812Z,12.30
2018-10-02T10:30:32.142Z,12.30
2018-10-02T10:33:01.088Z,12.40
2018-10-02T10:35:29.352Z,12.40
2018-10-02T10:37:57.672Z,12.50
2018-10-02T10:40:26.164Z,12.50
2018-10-02T10:42:54.503Z,12.50
2018-10-02T10:45:22.764Z,12.60
2018-10-02T10:47:51.060Z,12.60
2018-10-02T10:50:19.325Z,12.70
2018-10-02T10:52:48.240Z,12.70
2018-10-02T10:55:22.209Z,12.70
2018-10-02T10:57:51.089Z,12.70
2018-10-02T11:00:19.445Z,12.80
2018-10-02T11:02:47.854Z,12.80
2018-10-02T11:05:16.193Z,13.00
2018-10-02T11:07:44.513Z,13.10
2018-10-02T11:10:14.089Z,13.30
2018-10-02T11:12:42.388Z,13.50
2018-10-02T11:15:10.705Z,13.70
2018-10-02T11:17:39.913Z,13.90
2018-10-02T11:20:08.729Z,14.20
2018-10-02T11:22:37.079Z,14.20
2018-10-02T11:25:05.937Z,14.40
2018-10-02T11:27:34.172Z,14.40
2018-10-02T11:30:02.517Z,14.50
2018-10-02T11:32:31.085Z,14.70
2018-10-02T11:34:59.343Z,14.90
2018-10-02T11:37:27.630Z,14.80
2018-10-02T11:39:56.157Z,14.90
2018-10-02T11:42:24.537Z,14.90
2018-10-02T11:44:53.179Z,14.90
2018-10-02T11:47:21.656Z,14.90
2018-10-02T11:49:50.021Z,14.90
2018-10-02T11:52:18.257Z,14.90
2018-10-02T11:54:46.997Z,14.90
2018-10-02T11:57:15.280Z,14.90
2018-10-02T11:59:43.564Z,15.10
2018-10-02T12:02:12.458Z,15.10
2018-10-02T12:04:40.717Z,15.00
2018-10-02T12:07:09.026Z,14.90
2018-10-02T12:09:38.648Z,14.90
2018-10-02T12:12:07.269Z,14.90
2018-10-02T12:14:36.051Z,14.90
2018-10-02T12:17:05.076Z,15.00
2018-10-02T12:19:33.519Z,15.00
2018-10-02T12:22:01.777Z,15.00
2018-10-02T12:24:30.377Z,15.20
2018-10-02T12:26:58.720Z,15.50
2018-10-02T12:29:27.040Z,15.70
2018-10-02T12:31:55.787Z,15.80
2018-10-02T12:34:24.275Z,15.80
2018-10-02T12:36:52.623Z,15.80
2018-10-02T12:39:21.461Z,15.80
2018-10-02T12:41:49.845Z,15.90
2018-10-02T12:44:18.196Z,15.80
2018-10-02T12:46:46.716Z,15.80
2018-10-02T12:49:15.049Z,15.80
2018-10-02T12:51:43.388Z,15.80
2018-10-02T12:54:12.110Z,15.90
2018-10-02T12:56:40.397Z,16.00
2018-10-02T12:59:08.723Z,16.20
2018-10-02T13:01:37.452Z,16.20
2018-10-02T13:04:06.005Z,16.20
2018-10-02T13:06:34.561Z,16.20
2018-10-02T13:09:02.994Z,16.10
2018-10-02T13:11:31.288Z,16.10
2018-10-02T13:14:00.051Z,16.10
2018-10-02T13:16:29.394Z,16.10
2018-10-02T13:18:57.709Z,16.10
2018-10-02T13:21:26.125Z,16.20
2018-10-02T13:23:54.507Z,16.30
2018-10-02T13:26:22.784Z,16.50
2018-10-02T13:28:51.060Z,16.80
2018-10-02T13:31:19.369Z,17.10
2018-10-02T13:33:47.626Z,17.10
2018-10-02T13:36:15.926Z,17.10
2018-10-02T13:38:44.376Z,17.10
2018-10-02T13:41:12.745Z,17.30
2018-10-02T13:43:41.245Z,17.20
2018-10-02T13:46:09.952Z,17.00
2018-10-02T13:48:38.684Z,16.70
2018-10-02T13:51:07.129Z,16.50
2018-10-02T13:53:36.312Z,16.20
2018-10-02T13:56:04.638Z,16.00
2018-10-02T13:58:32.992Z,15.90
2018-10-02T14:01:01.701Z,15.80
2018-10-02T14:03:30.014Z,15.80
2018-10-02T14:05:58.336Z,15.70
2018-10-02T14:08:26.968Z,15.70
2018-10-02T14:10:55.273Z,15.80
2018-10-02T14:13:23.545Z,15.80
2018-10-02T14:15:52.106Z,15.80
2018-10-02T14:18:20.380Z,15.90
2018-10-02T14:20:48.657Z,16.00
2018-10-02T14:23:17.240Z,16.00
2018-10-02T14:25:45.554Z,16.10
2018-10-02T14:28:13.886Z,16.20
2018-10-02T14:30:42.922Z,16.30
2018-10-02T14:33:11.210Z,16.40
2018-10-02T14:35:40.339Z,16.40
2018-10-02T14:38:09.077Z,16.30
2018-10-02T14:40:37.743Z,16.30
2018-10-02T14:43:06.265Z,16.40
2018-10-02T14:45:34.590Z,16.30
2018-10-02T14:48:02.877Z,16.20
2018-10-02T14:50:31.358Z,16.00
2018-10-02T14:53:00.491Z,15.90
2018-10-02T14:55:28.784Z,15.80
2018-10-02T14:57:57.194Z,15.70
2018-10-02T15:00:26.072Z,15.70
2018-10-02T15:02:54.381Z,15.70
2018-10-02T15:05:22.682Z,15.80
2018-10-02T15:07:50.957Z,15.90
2018-10-02T15:10:19.226Z,15.90
2018-10-02T15:12:47.508Z,15.90
2018-10-02T15:15:15.853Z,16.10
2018-10-02T15:17:44.173Z,15.90
2018-10-02T15:20:12.525Z,15.80
2018-10-02T15:22:41.653Z,15.60
2018-10-02T15:25:09.934Z,15.50
2018-10-02T15:27:38.200Z,15.40
2018-10-02T15:30:06.888Z,15.40
2018-10-02T15:32:35.788Z,15.30
2018-10-02T15:35:04.112Z,15.20
2018-10-02T15:37:32.831Z,15.20
2018-10-02T15:40:01.052Z,15.10
2018-10-02T15:42:29.346Z,15.10
2018-10-02T15:44:57.789Z,15.00
2018-10-02T15:47:26.061Z,15.00
2018-10-02T15:49:54.357Z,15.00
2018-10-02T15:52:24.020Z,14.90
2018-10-02T15:54:52.343Z,14.80
2018-10-02T15:57:20.668Z,14.80
2018-10-02T15:59:49.491Z,14.80
2018-10-02T16:02:17.925Z,14.60
2018-10-02T16:04:46.254Z,14.50
2018-10-02T16:07:15.074Z,14.50
2018-10-02T16:09:43.386Z,14.50
2018-10-02T16:12:11.684Z,14.40
2018-10-02T16:14:39.989Z,14.40
2018-10-02T16:17:08.323Z,14.30
2018-10-02T16:19:36.640Z,14.30
2018-10-02T16:22:05.422Z,14.30
2018-10-02T16:24:33.815Z,14.30
2018-10-02T16:27:02.085Z,14.30
2018-10-02T16:29:32.064Z,14.30
2018-10-02T16:32:00.801Z,14.30
2018-10-02T16:34:29.147Z,14.30
2018-10-02T16:36:57.803Z,14.20
2018-10-02T16:39:26.347Z,14.20
2018-10-02T16:41:54.656Z,14.10
2018-10-02T16:44:22.985Z,14.00
2018-10-02T16:46:51.284Z,13.90
2018-10-02T16:49:19.570Z,13.90
2018-10-02T16:51:48.737Z,13.80
2018-10-02T16:54:21.919Z,13.70
2018-10-02T16:56:55.149Z,13.70
2018-10-02T16:59:23.560Z,13.60
2018-10-02T17:01:53.868Z,13.60
2018-10-02T17:04:23.688Z,13.50
2018-10-02T17:06:52.080Z,13.40
2018-10-02T17:09:20.494Z,13.40
2018-10-02T17:11:49.200Z,13.30
2018-10-02T17:14:18.196Z,13.20
2018-10-02T17:16:46.588Z,13.10
2018-10-02T17:19:15.371Z,13.00
2018-10-02T17:21:43.736Z,12.90
2018-10-02T17:24:12.097Z,12.80
2018-10-02T17:26:42.048Z,12.80
2018-10-02T17:29:10.390Z,12.70
2018-10-02T17:31:38.762Z,12.60
2018-10-02T17:34:07.879Z,12.50
2018-10-02T17:36:36.300Z,12.40
2018-10-02T17:39:07.395Z,12.30
2018-10-02T17:41:35.830Z,12.20
2018-10-02T17:44:04.257Z,12.10
2018-10-02T17:46:32.884Z,12.10
2018-10-02T17:49:01.366Z,12.00
2018-10-02T17:51:29.751Z,11.90
2018-10-02T17:53:58.187Z,11.80
2018-10-02T17:56:26.978Z,11.70
2018-10-02T17:58:55.277Z,11.70
2018-10-02T18:01:24.285Z,11.60
2018-10-02T18:03:52.518Z,11.60
2018-10-02T18:06:20.984Z,11.70
2018-10-02T18:08:49.336Z,11.70
2018-10-02T18:11:17.688Z,11.70
2018-10-02T18:13:46.313Z,11.70
2018-10-02T18:16:15.269Z,11.80
2018-10-02T18:18:43.544Z,11.80
2018-10-02T18:21:12.115Z,11.80
2018-10-02T18:23:40.992Z,11.70
2018-10-02T18:26:09.267Z,11.70
2018-10-02T18:28:37.823Z,11.70
2018-10-02T18:31:06.793Z,11.70
2018-10-02T18:33:35.200Z,11.60
2018-10-02T18:36:04.164Z,11.60
2018-10-02T18:38:32.850Z,11.60
2018-10-02T18:41:01.233Z,11.60
2018-10-02T18:43:31.786Z,11.70
2018-10-02T18:46:00.089Z,11.80
2018-10-02T18:48:29.001Z,11.80
2018-10-02T18:50:57.437Z,11.90
2018-10-02T18:53:25.740Z,11.90
2018-10-02T18:55:54.060Z,11.90
2018-10-02T18:58:22.954Z,12.00
2018-10-02T19:00:51.662Z,12.00
2018-10-02T19:03:19.963Z,12.00
2018-10-02T19:05:48.286Z,12.10
2018-10-02T19:08:21.358Z,12.10
2018-10-02T19:10:49.658Z,12.10
2018-10-02T19:13:18.026Z,12.10
2018-10-02T19:15:51.982Z,12.10
2018-10-02T19:18:20.309Z,12.00
2018-10-02T19:20:50.812Z,12.00
2018-10-02T19:23:21.125Z,12.00
2018-10-02T19:25:54.773Z,12.00
2018-10-02T19:28:23.204Z,11.90
2018-10-02T19:30:56.741Z,11.90
2018-10-02T19:33:25.638Z,11.80
2018-10-02T19:35:53.981Z,11.80
2018-10-02T19:38:27.776Z,11.80
2018-10-02T19:40:56.050Z,11.80
2018-10-02T19:43:24.350Z,11.70
2018-10-02T19:45:58.356Z,11.60
2018-10-02T19:48:26.644Z,11.60
2018-10-02T19:53:50.968Z,11.40
2018-10-02T19:56:19.265Z,11.40
2018-10-02T19:58:47.716Z,11.30
2018-10-02T20:01:15.990Z,11.30
2018-10-02T20:03:44.648Z,11.30
2018-10-02T20:06:12.913Z,11.30
2018-10-02T20:08:41.283Z,11.40
2018-10-02T20:11:10.121Z,11.30
2018-10-02T20:13:38.553Z,11.40
2018-10-02T20:16:07.053Z,11.30
2018-10-02T20:18:35.360Z,11.30
2018-10-02T20:21:03.716Z,11.30
2018-10-02T20:23:32.021Z,11.30
2018-10-02T20:26:00.699Z,11.30
2018-10-02T20:28:28.998Z,11.30
2018-10-02T20:30:57.284Z,11.20
2018-10-02T20:33:25.991Z,11.10
2018-10-02T20:35:54.370Z,11.10
2018-10-02T20:38:22.724Z,11.10
2018-10-02T20:40:51.741Z,11.00
2018-10-02T20:43:20.121Z,11.00
2018-10-02T20:45:48.402Z,11.00
2018-10-02T20:48:16.770Z,10.90
2018-10-02T20:50:45.082Z,10.90
2018-10-02T20:53:13.364Z,10.80
2018-10-02T20:55:41.817Z,10.80
2018-10-02T20:58:10.140Z,10.70
2018-10-02T21:00:38.493Z,10.70
2018-10-02T21:03:07.197Z,10.70
2018-10-02T21:05:35.518Z,10.70
2018-10-02T21:08:03.798Z,10.60
2018-10-02T21:10:32.189Z,10.50
2018-10-02T21:13:00.485Z,10.40
2018-10-02T21:15:28.905Z,10.40
2018-10-02T21:17:57.871Z,10.40
2018-10-02T21:20:26.172Z,10.40
2018-10-02T21:22:54.445Z,10.40
2018-10-02T21:25:23.336Z,10.30
2018-10-02T21:27:51.618Z,10.30
2018-10-02T21:30:19.892Z,10.20
2018-10-02T21:32:48.521Z,10.30
2018-10-02T21:35:16.821Z,10.30
2018-10-02T21:37:45.109Z,10.20
2018-10-02T21:40:13.767Z,10.20
2018-10-02T21:42:42.001Z,10.20
2018-10-02T21:45:10.285Z,10.20
2018-10-02T21:47:38.579Z,10.20
2018-10-02T21:50:06.896Z,10.30
2018-10-02T21:52:35.177Z,10.20
2018-10-02T21:55:03.525Z,10.30
2018-10-02T21:57:31.862Z,10.20
2018-10-02T22:00:00.131Z,10.20
2018-10-02T22:02:28.572Z,10.20
2018-10-02T22:04:56.841Z,10.20
2018-10-02T22:07:25.133Z,10.30
2018-10-02T22:09:53.848Z,10.20
2018-10-02T22:12:22.116Z,10.20
2018-10-02T22:14:50.481Z,10.10
2018-10-02T22:17:18.803Z,10.00
2018-10-02T22:19:47.118Z,10.00
2018-10-02T22:22:15.393Z,10.00
2018-10-02T22:24:44.132Z,10.00
2018-10-02T22:27:12.424Z,9.90
2018-10-02T22:29:40.797Z,10.00
2018-10-02T22:32:09.169Z,10.00
2018-10-02T22:34:37.492Z,10.00
2018-10-02T22:37:05.777Z,10.00
2018-10-02T22:39:34.353Z,10.00
2018-10-02T22:42:02.690Z,10.00
2018-10-02T22:44:30.967Z,10.10
2018-10-02T22:46:59.621Z,10.10
2018-10-02T22:49:27.904Z,10.10
2018-10-02T22:51:56.229Z,10.20
2018-10-02T22:54:24.532Z,10.20
2018-10-02T22:56:52.822Z,10.30
2018-10-02T22:59:21.096Z,10.40
2018-10-02T23:01:49.381Z,10.40
2018-10-02T23:04:17.740Z,10.40
2018-10-02T23:06:46.008Z,10.40
2018-10-02T23:09:14.753Z,10.50
2018-10-02T23:11:42.935Z,10.50
2018-10-02T23:14:11.210Z,10.60
2018-10-02T23:16:40.132Z,10.70
2018-10-02T23:19:08.583Z,10.60
2018-10-02T23:21:37.053Z,10.70
2018-10-02T23:24:06.072Z,10.70
2018-10-02T23:26:34.425Z,10.70
2018-10-02T23:29:02.795Z,10.70
2018-10-02T23:31:31.468Z,10.70
2018-10-02T23:33:59.851Z,10.70
2018-10-02T23:36:28.264Z,10.70
2018-10-02T23:38:57.364Z,10.70
2018-10-02T23:41:25.696Z,10.70
2018-10-02T23:43:54.028Z,10.60
2018-10-02T23:46:22.396Z,10.60
2018-10-02T23:48:50.736Z,10.60
2018-10-02T23:51:19.080Z,10.60
2018-10-02T23:53:47.656Z,10.60
2018-10-02T23:56:15.998Z,10.50
2018-10-02T23:58:44.395Z,10.60
